Time;durP1;ratioP1;P1;durP2;ratioP2;P2;SDS_P1;SDS_P2;PMS_P1;PMS_P2;Temp;Humidity;BMP_temperature;BMP_pressure;BME280_temperature;BME280_humidity;BME280_pressure;Samples;Min_cycle;Max_cycle;Signal;HPM_P1;HPM_P2
2022/12/28 00:00:00;;;;;;;6.90;3.57;;;2.80;99.90;;;;;;4131275;28;20300;-60
2022/12/28 00:02:01;;;;;;;7.50;3.70;;;2.90;99.90;;;;;;4130355;28;20916;-60
2022/12/28 00:04:05;;;;;;;8.60;3.57;;;2.90;99.90;;;;;;4131429;28;20810;-59
2022/12/28 00:06:07;;;;;;;7.00;3.27;;;2.90;99.90;;;;;;4129913;28;20326;-59
2022/12/28 00:08:08;;;;;;;6.47;2.77;;;2.90;99.90;;;;;;4131268;28;20311;-61
2022/12/28 00:10:09;;;;;;;9.43;2.93;;;2.90;99.90;;;;;;4129482;28;20319;-59
2022/12/28 00:12:10;;;;;;;7.17;3.40;;;2.90;99.90;;;;;;4130984;28;20350;-62
2022/12/28 00:14:12;;;;;;;7.23;3.10;;;2.90;99.90;;;;;;4124917;28;20737;-60
2022/12/28 00:16:25;;;;;;;7.50;3.00;;;2.90;99.90;;;;;;4114223;28;20327;-62
2022/12/28 00:18:26;;;;;;;8.27;3.43;;;2.90;99.90;;;;;;4114559;28;20811;-58
2022/12/28 00:20:27;;;;;;;6.13;3.50;;;2.90;99.90;;;;;;4101391;28;20304;-57
2022/12/28 00:22:28;;;;;;;6.67;3.27;;;2.90;99.90;;;;;;4123489;28;20681;-59
2022/12/28 00:24:29;;;;;;;8.53;4.43;;;2.90;99.90;;;;;;4127875;28;20271;-58
2022/12/28 00:26:32;;;;;;;8.77;4.07;;;2.80;99.90;;;;;;4122150;28;20668;-60
2022/12/28 00:28:34;;;;;;;9.03;3.67;;;2.80;99.90;;;;;;4111981;28;20269;-60
2022/12/28 00:30:35;;;;;;;6.37;3.43;;;2.80;99.90;;;;;;4113231;28;20320;-59
2022/12/28 00:32:36;;;;;;;8.67;3.20;;;2.80;99.90;;;;;;4112760;28;20252;-60
2022/12/28 00:34:37;;;;;;;8.40;3.87;;;2.70;99.90;;;;;;4113970;28;20308;-59
2022/12/28 00:36:38;;;;;;;7.43;3.57;;;2.70;99.90;;;;;;4112595;28;20722;-60
2022/12/28 00:38:40;;;;;;;5.33;3.07;;;2.70;99.90;;;;;;4113981;28;20339;-60
2022/12/28 00:40:42;;;;;;;6.20;3.60;;;2.70;99.90;;;;;;4112086;28;20379;-58
2022/12/28 00:42:43;;;;;;;8.10;3.27;;;2.70;99.90;;;;;;4096699;29;20336;-58
2022/12/28 00:44:44;;;;;;;5.07;3.10;;;2.60;99.90;;;;;;4118313;28;20276;-59
2022/12/28 00:46:45;;;;;;;7.40;3.20;;;2.70;99.90;;;;;;4129035;28;20275;-61
2022/12/28 00:48:46;;;;;;;9.30;3.17;;;2.60;99.90;;;;;;4117596;28;20339;-60
2022/12/28 00:50:48;;;;;;;4.57;2.60;;;2.60;99.90;;;;;;4112364;28;20331;-60
2022/12/28 00:52:49;;;;;;;6.77;2.73;;;2.60;99.90;;;;;;4112452;28;20312;-59
2022/12/28 00:54:50;;;;;;;12.77;3.00;;;2.60;99.90;;;;;;4111642;28;20317;-61
2022/12/28 00:56:51;;;;;;;7.67;2.93;;;2.60;99.90;;;;;;4113632;28;20320;-60
2022/12/28 00:58:57;;;;;;;7.30;3.53;;;2.60;99.90;;;;;;4122220;28;20292;-60
2022/12/28 01:00:58;;;;;;;6.87;2.70;;;2.50;99.90;;;;;;4126850;28;20304;-60
2022/12/28 01:03:00;;;;;;;5.30;2.80;;;2.50;99.90;;;;;;4128513;28;20319;-62
2022/12/28 01:05:01;;;;;;;5.57;2.83;;;2.50;99.90;;;;;;4129732;28;20319;-60
2022/12/28 01:07:02;;;;;;;6.90;3.27;;;2.50;99.90;;;;;;4127408;28;20311;-59
2022/12/28 01:09:03;;;;;;;6.80;2.80;;;2.40;99.90;;;;;;4123209;28;20633;-57
2022/12/28 01:11:12;;;;;;;8.13;2.70;;;2.50;99.90;;;;;;4112474;28;20645;-58
2022/12/28 01:13:13;;;;;;;11.97;5.03;;;2.40;99.90;;;;;;4113936;28;20725;-58
2022/12/28 01:15:15;;;;;;;9.37;5.00;;;2.40;99.90;;;;;;4112470;28;20261;-58
2022/12/28 01:17:16;;;;;;;9.10;4.73;;;2.30;99.90;;;;;;4113146;28;20260;-59
2022/12/28 01:19:21;;;;;;;11.60;5.80;;;2.30;99.90;;;;;;4054225;28;1242434;-57
2022/12/28 01:21:24;;;;;;;13.23;5.07;;;2.20;99.90;;;;;;4129435;28;20096;-60
2022/12/28 01:23:25;;;;;;;11.30;6.33;;;2.20;99.90;;;;;;4129403;28;20373;-59
2022/12/28 01:25:26;;;;;;;12.47;5.80;;;2.10;99.90;;;;;;4129412;28;20340;-59
2022/12/28 01:27:27;;;;;;;14.83;6.20;;;2.10;99.90;;;;;;4127863;28;20962;-58
2022/12/28 01:29:28;;;;;;;13.20;5.67;;;2.00;99.90;;;;;;4123169;28;20280;-59
2022/12/28 01:31:30;;;;;;;13.67;6.13;;;1.90;99.90;;;;;;4114005;28;20269;-61
2022/12/28 01:33:31;;;;;;;14.57;6.43;;;1.90;99.90;;;;;;4112748;28;20598;-54
2022/12/28 01:35:32;;;;;;;14.03;6.77;;;1.80;99.90;;;;;;4112256;28;20316;-59
2022/12/28 01:37:34;;;;;;;14.57;7.07;;;1.80;99.90;;;;;;4112822;28;20404;-58
2022/12/28 01:39:35;;;;;;;16.60;7.37;;;1.70;99.90;;;;;;4113406;28;20327;-59
2022/12/28 01:41:39;;;;;;;14.87;6.53;;;1.70;99.90;;;;;;4112642;28;20602;-60
2022/12/28 01:43:51;;;;;;;14.63;6.67;;;1.60;99.90;;;;;;4114176;28;20297;-59
2022/12/28 01:45:52;;;;;;;14.83;6.37;;;1.50;99.90;;;;;;4112786;28;20344;-57
2022/12/28 01:47:54;;;;;;;13.50;7.37;;;1.40;99.90;;;;;;4113825;28;20269;-59
2022/12/28 01:50:08;;;;;;;16.83;8.37;;;1.40;99.90;;;;;;4112542;28;20339;-61
2022/12/28 01:52:31;;;;;;;14.63;7.60;;;1.30;99.90;;;;;;4113445;28;20276;-60
2022/12/28 01:54:41;;;;;;;14.53;7.60;;;1.20;99.90;;;;;;4112366;28;20693;-57
2022/12/28 01:56:43;;;;;;;19.83;8.30;;;1.10;99.90;;;;;;4113615;28;20261;-59
2022/12/28 01:58:45;;;;;;;20.60;8.20;;;1.10;99.90;;;;;;4112090;28;20331;-60
2022/12/28 02:00:46;;;;;;;14.63;8.00;;;1.00;99.90;;;;;;4113441;28;20619;-58
2022/12/28 02:03:03;;;;;;;17.47;8.07;;;1.00;99.90;;;;;;4112407;28;20741;-60
2022/12/28 02:05:06;;;;;;;14.00;7.27;;;0.90;99.90;;;;;;4113620;28;20587;-61
2022/12/28 02:07:07;;;;;;;14.60;7.23;;;0.80;99.90;;;;;;4112261;28;20328;-58
2022/12/28 02:09:15;;;;;;;13.67;6.40;;;0.90;99.90;;;;;;4113182;28;20269;-61
2022/12/28 02:11:18;;;;;;;15.97;7.17;;;0.90;99.90;;;;;;4112597;28;20784;-60
2022/12/28 02:13:21;;;;;;;14.00;6.27;;;0.90;99.90;;;;;;4126560;28;20675;-58
2022/12/28 02:15:22;;;;;;;15.87;6.80;;;0.90;99.90;;;;;;4127901;28;20342;-61
2022/12/28 02:17:24;;;;;;;13.03;6.90;;;0.90;99.90;;;;;;4128671;28;20264;-58
2022/12/28 02:19:36;;;;;;;11.70;6.10;;;0.90;99.90;;;;;;4128813;28;20602;-61
2022/12/28 02:22:01;;;;;;;11.60;6.63;;;0.90;99.90;;;;;;4128344;28;20350;-60
2022/12/28 02:24:11;;;;;;;13.23;6.47;;;0.90;99.90;;;;;;4128643;28;20386;-60
2022/12/28 02:26:37;;;;;;;15.53;7.70;;;0.80;99.90;;;;;;4128675;28;20737;-60
2022/12/28 02:29:01;;;;;;;16.13;6.67;;;0.80;99.90;;;;;;4128046;28;20668;-62
2022/12/28 02:31:11;;;;;;;12.70;6.60;;;0.80;99.90;;;;;;4075739;28;20332;-61
2022/12/28 02:33:23;;;;;;;13.18;6.68;;;0.70;99.90;;;;;;4127393;28;20264;-59
2022/12/28 02:35:45;;;;;;;12.83;6.33;;;0.70;99.90;;;;;;4129274;28;20092;-60
2022/12/28 02:37:57;;;;;;;12.67;6.67;;;0.60;99.90;;;;;;4120893;28;20753;-60
2022/12/28 02:40:06;;;;;;;14.60;6.30;;;0.50;99.90;;;;;;4112047;28;20265;-61
2022/12/28 02:42:08;;;;;;;13.83;6.30;;;0.40;99.90;;;;;;4111420;28;20548;-60
2022/12/28 02:44:10;;;;;;;14.53;6.67;;;0.40;99.90;;;;;;4113282;28;20328;-59
2022/12/28 02:51:03;;;;;;;11.17;5.87;;;0.40;99.90;;;;;;4111634;28;20339;-59
2022/12/28 02:53:23;;;;;;;13.23;6.17;;;0.40;99.90;;;;;;4112766;28;20281;-55
2022/12/28 02:58:24;;;;;;;26.50;6.43;;;0.40;99.90;;;;;;4113068;28;20708;-60
2022/12/28 03:00:35;;;;;;;11.17;6.27;;;0.30;99.90;;;;;;4113994;28;20360;-60
2022/12/28 03:03:07;;;;;;;10.73;5.87;;;0.30;99.90;;;;;;4095086;29;20310;-63
2022/12/28 03:08:21;;;;;;;14.73;6.80;;;0.30;99.90;;;;;;4112088;28;20337;-60
2022/12/28 03:10:28;;;;;;;11.77;5.97;;;0.20;99.90;;;;;;4112953;28;20753;-59
2022/12/28 03:12:34;;;;;;;14.40;6.40;;;0.20;99.90;;;;;;4111926;28;20273;-60
2022/12/28 03:14:58;;;;;;;12.63;6.17;;;0.20;99.90;;;;;;4113069;28;20273;-60
2022/12/28 03:31:18;;;;;;;13.03;5.93;;;0.10;99.90;;;;;;4112392;28;20331;-61
2022/12/28 03:33:20;;;;;;;13.90;5.63;;;0.10;99.90;;;;;;4126425;28;20260;-59
2022/12/28 03:35:25;;;;;;;14.50;6.10;;;0.00;99.90;;;;;;4128161;28;20315;-60
2022/12/28 03:37:51;;;;;;;12.50;5.77;;;0.00;99.90;;;;;;4119414;28;20277;-61
2022/12/28 03:40:14;;;;;;;15.23;6.77;;;0.00;99.90;;;;;;4112248;28;20272;-60
2022/12/28 03:44:43;;;;;;;10.50;6.33;;;-0.10;99.90;;;;;;4112760;28;20799;-59
2022/12/28 03:47:05;;;;;;;15.97;7.17;;;-0.10;99.90;;;;;;4111292;28;20733;-61
2022/12/28 03:49:06;;;;;;;18.93;10.37;;;-0.20;99.90;;;;;;4111648;28;20261;-60
2022/12/28 03:51:08;;;;;;;21.47;12.97;;;-0.30;99.90;;;;;;4110708;28;20781;-61
2022/12/28 03:53:09;;;;;;;39.03;17.77;;;-0.50;99.90;;;;;;4111948;28;20332;-61
2022/12/28 03:55:13;;;;;;;31.10;19.63;;;-0.60;99.90;;;;;;4110924;28;20803;-58
2022/12/28 03:57:15;;;;;;;32.77;18.97;;;-0.70;99.90;;;;;;4118711;28;20303;-60
2022/12/28 03:59:17;;;;;;;34.07;19.03;;;-0.80;99.90;;;;;;4122348;28;20292;-59
2022/12/28 04:01:19;;;;;;;29.63;20.00;;;-0.90;99.90;;;;;;4114687;28;20765;-59
2022/12/28 04:03:20;;;;;;;28.27;19.20;;;-0.90;99.90;;;;;;4114984;28;20319;-59
2022/12/28 04:05:21;;;;;;;28.63;18.30;;;-0.90;99.90;;;;;;4114272;28;20677;-59
2022/12/28 04:07:22;;;;;;;34.97;18.37;;;-1.00;99.90;;;;;;4122318;28;21154;-60
2022/12/28 04:09:23;;;;;;;35.80;18.63;;;-1.00;99.90;;;;;;4130146;28;20268;-62
2022/12/28 04:11:25;;;;;;;30.63;17.63;;;-0.90;99.90;;;;;;4129912;28;20302;-61
2022/12/28 04:13:32;;;;;;;25.77;16.23;;;-0.90;99.90;;;;;;4130674;28;20330;-60
2022/12/28 04:15:33;;;;;;;23.07;13.07;;;-0.90;99.90;;;;;;4131241;28;20660;-60
2022/12/28 04:17:34;;;;;;;26.70;15.50;;;-1.00;99.90;;;;;;4129940;28;20276;-61
2022/12/28 04:19:36;;;;;;;25.30;13.37;;;-1.00;99.90;;;;;;4130246;28;20300;-61
2022/12/28 04:21:37;;;;;;;22.37;12.63;;;-1.00;99.90;;;;;;4129598;28;20296;-58
2022/12/28 04:23:38;;;;;;;28.57;14.60;;;-1.10;99.90;;;;;;4130365;28;20351;-59
2022/12/28 04:25:39;;;;;;;25.17;14.33;;;-1.10;99.90;;;;;;4130012;28;20323;-60
2022/12/28 04:27:40;;;;;;;26.40;14.60;;;-1.00;99.90;;;;;;4119459;28;20340;-60
2022/12/28 04:29:41;;;;;;;24.43;16.43;;;-1.00;99.90;;;;;;4114024;28;20807;-60
2022/12/28 04:31:42;;;;;;;26.43;16.43;;;-1.00;99.90;;;;;;4114449;28;20272;-60
2022/12/28 04:33:43;;;;;;;26.47;17.00;;;-1.00;99.90;;;;;;4113405;28;20280;-60
2022/12/28 04:35:45;;;;;;;33.83;17.70;;;-1.00;99.90;;;;;;4113021;28;20814;-61
2022/12/28 04:37:46;;;;;;;27.73;16.30;;;-1.00;99.90;;;;;;4113660;28;20272;-61
2022/12/28 04:39:47;;;;;;;32.23;16.37;;;-1.10;99.90;;;;;;4113251;28;20730;-59
2022/12/28 04:41:48;;;;;;;28.70;15.40;;;-1.20;99.90;;;;;;4113899;28;20292;-59
2022/12/28 04:43:50;;;;;;;21.40;12.20;;;-1.20;99.90;;;;;;4113249;28;20281;-61
2022/12/28 04:45:58;;;;;;;24.17;14.03;;;-1.30;99.90;;;;;;4114748;28;20265;-61
2022/12/28 04:48:00;;;;;;;22.50;11.97;;;-1.20;99.90;;;;;;4113423;28;20315;-61
2022/12/28 04:50:01;;;;;;;17.23;11.73;;;-1.30;99.90;;;;;;4114328;28;20328;-60
2022/12/28 04:52:03;;;;;;;24.43;11.37;;;-1.30;99.90;;;;;;4114303;28;20305;-60
2022/12/28 04:54:04;;;;;;;20.30;10.33;;;-1.30;99.90;;;;;;4114557;28;20277;-60
2022/12/28 04:56:07;;;;;;;17.37;9.00;;;-1.40;99.90;;;;;;4113314;28;20277;-56
2022/12/28 04:58:08;;;;;;;12.37;7.70;;;-1.40;99.90;;;;;;4113734;28;20277;-61
2022/12/28 05:00:10;;;;;;;20.17;8.37;;;-1.50;99.90;;;;;;4113211;28;20320;-55
2022/12/28 05:02:11;;;;;;;19.63;10.13;;;-1.50;99.90;;;;;;4113910;28;20831;-59
2022/12/28 05:04:12;;;;;;;17.23;8.57;;;-1.50;99.90;;;;;;4113144;28;20276;-58
2022/12/28 05:06:16;;;;;;;14.93;9.03;;;-1.60;99.90;;;;;;4121081;28;20293;-59
2022/12/28 05:08:17;;;;;;;16.53;8.57;;;-1.60;99.90;;;;;;4129297;28;20275;-60
2022/12/28 05:10:18;;;;;;;16.03;8.03;;;-1.60;99.90;;;;;;4122056;28;20272;-59
2022/12/28 05:12:20;;;;;;;15.30;7.57;;;-1.60;99.90;;;;;;4113978;28;20327;-59
2022/12/28 05:14:21;;;;;;;17.40;9.33;;;-1.60;99.90;;;;;;4095731;29;20301;-55
2022/12/28 05:16:25;;;;;;;17.97;8.90;;;-1.60;99.90;;;;;;4113295;28;20685;-61
2022/12/28 05:18:26;;;;;;;14.80;8.13;;;-1.50;99.90;;;;;;4112841;28;20823;-59
2022/12/28 05:20:27;;;;;;;18.20;7.30;;;-1.50;99.90;;;;;;4113698;28;20284;-61
2022/12/28 05:22:28;;;;;;;15.57;8.37;;;-1.50;99.90;;;;;;4110663;28;20285;-60
2022/12/28 05:24:30;;;;;;;18.13;7.57;;;-1.50;99.90;;;;;;4129958;28;20272;-61
2022/12/28 05:26:31;;;;;;;14.90;7.73;;;-1.50;99.90;;;;;;4128919;28;20338;-59
2022/12/28 05:28:32;;;;;;;21.83;8.57;;;-1.50;99.90;;;;;;4129994;28;20895;-62
2022/12/28 05:30:33;;;;;;;21.23;8.40;;;-1.50;99.90;;;;;;4128624;28;20280;-63
2022/12/28 05:32:34;;;;;;;17.53;8.77;;;-1.50;99.90;;;;;;4129923;28;20268;-62
2022/12/28 05:34:35;;;;;;;16.23;7.80;;;-1.50;99.90;;;;;;4127368;28;20786;-63
2022/12/28 05:36:38;;;;;;;21.00;8.87;;;-1.50;99.90;;;;;;4129236;28;20340;-61
2022/12/28 05:38:40;;;;;;;16.53;8.67;;;-1.60;99.90;;;;;;4129423;28;20315;-60
2022/12/28 05:40:41;;;;;;;20.77;10.40;;;-1.60;99.90;;;;;;4119784;28;20379;-59
2022/12/28 05:42:42;;;;;;;15.33;7.43;;;-1.70;99.90;;;;;;4114513;28;20273;-61
2022/12/28 05:44:43;;;;;;;17.47;7.10;;;-1.70;99.90;;;;;;4112088;28;20276;-55
2022/12/28 05:46:45;;;;;;;14.57;7.23;;;-1.80;99.90;;;;;;4113256;28;20340;-59
2022/12/28 05:48:47;;;;;;;13.63;7.60;;;-1.80;99.90;;;;;;4111373;28;20327;-60
2022/12/28 05:50:48;;;;;;;16.70;7.97;;;-1.80;99.90;;;;;;4113495;28;20336;-60
2022/12/28 05:52:49;;;;;;;18.90;7.83;;;-1.80;99.90;;;;;;4112474;28;20312;-59
2022/12/28 05:54:50;;;;;;;15.87;8.10;;;-1.90;99.90;;;;;;4113517;28;20273;-61
2022/12/28 05:56:51;;;;;;;14.20;7.30;;;-1.80;99.90;;;;;;4112354;28;20261;-60
2022/12/28 05:58:55;;;;;;;14.30;7.70;;;-1.80;99.90;;;;;;4113526;28;20280;-59
2022/12/28 06:01:07;;;;;;;18.80;9.37;;;-1.80;99.90;;;;;;4111430;28;20300;-61
2022/12/28 06:03:08;;;;;;;20.23;9.17;;;-1.80;99.90;;;;;;4119147;28;20272;-60
2022/12/28 06:05:09;;;;;;;19.03;9.40;;;-1.80;99.90;;;;;;4126576;28;20759;-58
2022/12/28 06:07:10;;;;;;;24.87;9.00;;;-1.80;99.90;;;;;;4129029;28;20268;-60
2022/12/28 06:09:12;;;;;;;18.80;8.90;;;-1.80;99.90;;;;;;4128305;28;20252;-57
2022/12/28 06:11:16;;;;;;;21.03;8.47;;;-1.80;99.90;;;;;;4128874;28;20268;-60
2022/12/28 06:13:17;;;;;;;20.00;10.10;;;-1.80;99.90;;;;;;4128928;28;20779;-59
2022/12/28 06:15:18;;;;;;;29.30;9.47;;;-1.70;99.90;;;;;;4128669;28;20334;-61
2022/12/28 06:17:19;;;;;;;29.00;10.50;;;-1.80;99.90;;;;;;4121891;28;20319;-60
2022/12/28 06:19:20;;;;;;;33.63;12.23;;;-1.70;99.90;;;;;;4112105;28;20335;-60
2022/12/28 06:21:27;;;;;;;27.53;11.77;;;-1.70;99.90;;;;;;4112732;28;20300;-58
2022/12/28 06:23:29;;;;;;;35.40;14.43;;;-1.70;99.90;;;;;;4119870;28;20288;-61
2022/12/28 06:25:30;;;;;;;34.60;12.60;;;-1.60;99.90;;;;;;4113062;28;20327;-58
2022/12/28 06:27:31;;;;;;;29.87;12.67;;;-1.50;99.90;;;;;;4112468;28;20276;-58
2022/12/28 06:29:32;;;;;;;34.77;14.70;;;-1.40;99.90;;;;;;4113026;28;20753;-62
2022/12/28 06:31:36;;;;;;;40.60;17.07;;;-1.20;99.90;;;;;;4111565;28;20272;-60
2022/12/28 06:33:38;;;;;;;61.40;17.07;;;-1.00;99.90;;;;;;4112439;28;20328;-60
2022/12/28 06:35:42;;;;;;;55.33;22.50;;;-0.80;99.90;;;;;;4111639;28;20264;-61
2022/12/28 06:37:43;;;;;;;50.63;19.50;;;-0.50;99.90;;;;;;4112236;28;20273;-58
2022/12/28 06:39:44;;;;;;;38.60;17.63;;;-0.30;99.90;;;;;;4111097;28;20320;-60
2022/12/28 06:41:45;;;;;;;37.63;16.57;;;-0.10;99.90;;;;;;4112685;28;20300;-59
2022/12/28 06:43:47;;;;;;;38.00;19.67;;;0.20;99.90;;;;;;4112511;28;20283;-59
2022/12/28 06:45:55;;;;;;;48.93;21.13;;;0.40;99.90;;;;;;4112741;28;20334;-61
2022/12/28 06:47:57;;;;;;;37.60;18.30;;;0.70;99.90;;;;;;4116427;28;20276;-63
2022/12/28 06:49:58;;;;;;;31.17;17.20;;;1.00;99.90;;;;;;4124023;28;20331;-62
2022/12/28 06:51:59;;;;;;;25.77;11.77;;;1.20;99.90;;;;;;4112274;28;20351;-61
2022/12/28 06:54:00;;;;;;;34.47;16.13;;;1.40;99.90;;;;;;4110840;28;20327;-60
2022/12/28 06:56:08;;;;;;;35.53;18.23;;;1.60;99.90;;;;;;4112379;28;20277;-60
2022/12/28 06:58:09;;;;;;;31.03;15.37;;;1.80;99.90;;;;;;4111466;28;20328;-61
2022/12/28 07:00:11;;;;;;;27.13;14.03;;;1.90;99.90;;;;;;4113393;28;20653;-61
2022/12/28 07:02:12;;;;;;;32.23;15.33;;;2.10;99.90;;;;;;4118244;28;20299;-63
2022/12/28 07:04:14;;;;;;;23.37;13.47;;;2.30;99.90;;;;;;4128724;28;20732;-61
2022/12/28 07:06:16;;;;;;;23.33;12.83;;;2.40;99.90;;;;;;4127223;28;20093;-63
2022/12/28 07:08:18;;;;;;;22.13;12.00;;;2.60;99.90;;;;;;4127978;28;20366;-60
2022/12/28 07:10:19;;;;;;;17.67;9.10;;;2.50;99.90;;;;;;4126680;28;20787;-62
2022/12/28 07:12:20;;;;;;;23.03;12.07;;;2.60;99.90;;;;;;4128143;28;20050;-62
2022/12/28 07:14:21;;;;;;;23.47;12.90;;;2.00;99.90;;;;;;4127962;28;20084;-62
2022/12/28 07:16:24;;;;;;;23.60;12.10;;;1.70;99.90;;;;;;4128273;28;20035;-64
2022/12/28 07:18:25;;;;;;;26.10;13.93;;;1.40;99.90;;;;;;4116120;28;20112;-63
2022/12/28 07:20:26;;;;;;;25.27;13.03;;;1.10;99.90;;;;;;4111896;28;20054;-62
2022/12/28 07:22:27;;;;;;;29.90;16.17;;;1.20;99.90;;;;;;4111846;28;20443;-63
2022/12/28 07:24:28;;;;;;;27.90;13.73;;;1.00;99.90;;;;;;4111060;28;20066;-62
2022/12/28 07:26:31;;;;;;;24.83;11.90;;;1.00;99.90;;;;;;4112377;28;20035;-63
2022/12/28 07:28:34;;;;;;;26.93;12.90;;;1.00;99.90;;;;;;4110949;28;20042;-61
2022/12/28 07:30:36;;;;;;;30.00;11.13;;;1.00;99.90;;;;;;4111812;28;20050;-63
2022/12/28 07:32:38;;;;;;;23.97;11.53;;;0.80;99.90;;;;;;4111173;28;20276;-63
2022/12/28 07:34:39;;;;;;;23.40;12.43;;;0.80;99.90;;;;;;4115590;28;20027;-62
2022/12/28 07:36:40;;;;;;;27.63;13.87;;;0.80;99.90;;;;;;4114381;28;20293;-64
2022/12/28 07:38:41;;;;;;;25.27;13.33;;;1.00;99.90;;;;;;4118104;28;20320;-64
2022/12/28 07:40:43;;;;;;;29.17;15.07;;;1.30;99.90;;;;;;4128205;28;20035;-61
2022/12/28 07:42:44;;;;;;;33.87;18.20;;;1.60;99.90;;;;;;4124838;28;20050;-63
2022/12/28 07:44:46;;;;;;;37.93;18.00;;;1.90;99.90;;;;;;4130839;28;20751;-62
2022/12/28 07:46:47;;;;;;;35.93;17.00;;;2.20;99.90;;;;;;4127485;28;20451;-62
2022/12/28 07:48:50;;;;;;;26.73;15.20;;;2.40;99.90;;;;;;4114193;28;20081;-62
2022/12/28 07:50:51;;;;;;;29.20;17.13;;;2.60;99.90;;;;;;4128247;28;20093;-62
2022/12/28 07:52:52;;;;;;;30.33;16.53;;;2.70;99.90;;;;;;4130021;28;20034;-62
2022/12/28 07:54:54;;;;;;;43.20;18.83;;;3.00;99.90;;;;;;4130451;28;20092;-62
2022/12/28 07:56:55;;;;;;;39.43;18.00;;;3.00;99.90;;;;;;4130986;28;20071;-60
2022/12/28 07:58:59;;;;;;;29.97;16.50;;;3.10;99.90;;;;;;4130376;28;20050;-61
2022/12/28 08:01:08;;;;;;;32.63;16.60;;;3.20;99.90;;;;;;4130588;28;20046;-62
2022/12/28 08:03:09;;;;;;;34.47;15.70;;;3.30;99.90;;;;;;4130279;28;20030;-66
2022/12/28 08:05:10;;;;;;;33.40;16.17;;;3.40;99.90;;;;;;4130846;28;20038;-64
2022/12/28 08:07:11;;;;;;;30.07;15.27;;;3.10;99.90;;;;;;4129387;28;20965;-61
2022/12/28 08:09:14;;;;;;;29.53;15.07;;;3.20;99.90;;;;;;4131198;28;20442;-60
2022/12/28 08:11:18;;;;;;;19.23;11.37;;;3.30;99.90;;;;;;4128998;28;20070;-62
2022/12/28 08:13:19;;;;;;;22.00;11.13;;;3.40;99.90;;;;;;4130999;28;20077;-63
2022/12/28 08:15:20;;;;;;;22.43;10.87;;;3.50;99.90;;;;;;4129067;28;20034;-60
2022/12/28 08:17:21;;;;;;;20.70;9.80;;;3.60;99.90;;;;;;4130609;28;20034;-62
2022/12/28 08:19:22;;;;;;;16.40;9.57;;;3.60;99.90;;;;;;4128739;28;20050;-62
2022/12/28 08:21:32;;;;;;;17.33;9.57;;;3.90;99.90;;;;;;4130495;28;20517;-62
2022/12/28 08:23:33;;;;;;;20.15;9.63;;;4.10;99.90;;;;;;4129667;28;20105;-61
2022/12/28 08:25:34;;;;;;;22.37;12.77;;;4.30;99.90;;;;;;4130271;28;20101;-62
2022/12/28 08:27:36;;;;;;;17.63;9.70;;;4.30;99.90;;;;;;4103935;28;20035;-61
2022/12/28 08:29:37;;;;;;;20.03;10.07;;;4.40;99.90;;;;;;4113853;28;20030;-61
2022/12/28 08:31:40;;;;;;;14.23;7.53;;;4.50;99.90;;;;;;4113811;28;20435;-61
2022/12/28 08:33:41;;;;;;;18.93;8.97;;;4.50;99.90;;;;;;4113046;28;20113;-59
2022/12/28 08:35:43;;;;;;;17.47;9.03;;;4.40;99.90;;;;;;4114327;28;20034;-60
2022/12/28 08:37:44;;;;;;;13.47;7.17;;;4.50;99.90;;;;;;4113060;28;20431;-60
2022/12/28 08:39:45;;;;;;;17.57;8.63;;;4.30;99.90;;;;;;4126614;28;20023;-61
2022/12/28 08:41:46;;;;;;;18.47;8.73;;;4.20;99.90;;;;;;4129539;28;20030;-61
2022/12/28 08:43:48;;;;;;;13.50;8.17;;;4.20;99.90;;;;;;4118278;28;20117;-60
2022/12/28 08:46:00;;;;;;;17.73;9.73;;;4.30;99.90;;;;;;4112460;28;20403;-61
2022/12/28 08:48:02;;;;;;;14.90;8.77;;;4.50;99.90;;;;;;4114168;28;20718;-61
2022/12/28 08:50:03;;;;;;;16.47;8.03;;;4.40;99.90;;;;;;4113291;28;20030;-61
2022/12/28 08:52:06;;;;;;;18.87;9.90;;;4.50;99.90;;;;;;4113952;28;20026;-62
2022/12/28 08:54:08;;;;;;;19.50;9.53;;;4.30;99.90;;;;;;4113258;28;20457;-62
2022/12/28 08:56:18;;;;;;;14.80;8.67;;;4.10;99.90;;;;;;4114197;28;20030;-61
2022/12/28 08:58:19;;;;;;;23.70;13.50;;;4.10;99.90;;;;;;4112969;28;20085;-60
2022/12/28 09:00:21;;;;;;;18.33;10.00;;;4.00;99.90;;;;;;4113655;28;20418;-60
2022/12/28 09:02:22;;;;;;;15.83;7.67;;;4.00;99.90;;;;;;4112539;28;20308;-61
2022/12/28 09:04:23;;;;;;;17.43;8.90;;;4.00;99.90;;;;;;4113782;28;20327;-66
2022/12/28 09:06:29;;;;;;;14.00;7.83;;;3.70;99.90;;;;;;4113070;28;20336;-56
2022/12/28 09:08:31;;;;;;;16.23;9.53;;;3.40;99.90;;;;;;4113503;28;20614;-60
2022/12/28 09:10:32;;;;;;;23.27;10.87;;;3.20;99.90;;;;;;4095829;29;20682;-58
2022/12/28 09:12:33;;;;;;;23.37;9.97;;;3.00;99.90;;;;;;4112393;28;20336;-58
2022/12/28 09:14:34;;;;;;;14.37;8.27;;;2.90;99.90;;;;;;4113922;28;20273;-59
2022/12/28 09:16:38;;;;;;;17.50;8.13;;;2.80;99.90;;;;;;4112020;28;20273;-60
2022/12/28 09:18:40;;;;;;;19.23;8.23;;;2.80;99.90;;;;;;4113558;28;20273;-59
2022/12/28 09:20:41;;;;;;;18.93;7.87;;;2.70;99.90;;;;;;4112412;28;20281;-61
2022/12/28 09:22:42;;;;;;;19.50;8.17;;;3.00;99.90;;;;;;4113177;28;20658;-61
2022/12/28 09:24:43;;;;;;;14.93;7.47;;;3.00;99.90;;;;;;4112014;28;20288;-61
2022/12/28 09:26:44;;;;;;;17.97;6.77;;;3.20;99.90;;;;;;4113392;28;20335;-61
2022/12/28 09:28:45;;;;;;;18.03;7.20;;;3.10;99.90;;;;;;4113415;28;20280;-57
2022/12/28 09:30:46;;;;;;;16.20;7.17;;;3.00;99.90;;;;;;4113488;28;20339;-55
2022/12/28 09:33:57;;;;;;;17.93;7.50;;;3.00;99.90;;;;;;4119746;28;20279;-60
2022/12/28 09:35:08;;;;;;;13.80;6.80;;;2.80;99.90;;;;;;4129612;28;20680;-60
2022/12/28 09:37:09;;;;;;;15.50;7.60;;;2.80;99.90;;;;;;4127919;28;20335;-61
2022/12/28 09:39:15;;;;;;;13.10;7.37;;;2.80;99.90;;;;;;4125857;28;20268;-62
2022/12/28 09:41:39;;;;;;;19.03;7.97;;;2.80;99.90;;;;;;4128373;28;20837;-61
2022/12/28 09:43:42;;;;;;;15.73;7.10;;;2.80;99.90;;;;;;4113314;28;20781;-58
2022/12/28 09:45:44;;;;;;;16.17;7.47;;;2.70;99.90;;;;;;4111430;28;20348;-59
2022/12/28 09:47:50;;;;;;;13.07;7.67;;;2.70;99.90;;;;;;4112479;28;20277;-58
2022/12/28 09:50:06;;;;;;;13.60;7.63;;;2.60;99.90;;;;;;4112259;28;20633;-53
2022/12/28 09:52:23;;;;;;;15.47;7.77;;;2.60;99.90;;;;;;4112575;28;20332;-59
2022/12/28 09:54:24;;;;;;;13.47;7.00;;;2.80;99.90;;;;;;4112060;28;20276;-57
2022/12/28 09:56:41;;;;;;;17.30;7.80;;;2.80;99.90;;;;;;4112623;28;20324;-58
2022/12/28 09:58:43;;;;;;;14.17;6.80;;;2.70;99.90;;;;;;4113183;28;20502;-59
2022/12/28 10:00:48;;;;;;;12.27;7.10;;;2.70;99.90;;;;;;4115773;28;20279;-64
2022/12/28 10:03:17;;;;;;;11.20;6.83;;;2.80;99.90;;;;;;4121845;28;20312;-58
2022/12/28 10:05:20;;;;;;;11.60;5.83;;;2.90;99.90;;;;;;4108849;28;20284;-58
2022/12/28 10:07:21;;;;;;;12.13;6.33;;;2.80;99.90;;;;;;4111664;28;20780;-53
2022/12/28 10:09:29;;;;;;;10.43;5.93;;;2.80;99.90;;;;;;4112761;28;20328;-58
2022/12/28 10:11:35;;;;;;;13.13;5.97;;;2.80;99.90;;;;;;4121888;28;20260;-65
2022/12/28 10:13:38;;;;;;;13.07;6.00;;;2.90;99.90;;;;;;4128180;28;20267;-57
2022/12/28 10:15:39;;;;;;;11.60;5.57;;;3.00;99.90;;;;;;4128406;28;20314;-59
2022/12/28 10:17:41;;;;;;;12.60;6.63;;;2.90;99.90;;;;;;4128468;28;20268;-60
2022/12/28 10:19:46;;;;;;;12.13;6.50;;;3.00;99.90;;;;;;4125394;28;20311;-61
2022/12/28 10:22:12;;;;;;;13.27;6.93;;;3.00;99.90;;;;;;4124547;28;20285;-62
2022/12/28 10:24:13;;;;;;;12.23;7.07;;;3.00;99.90;;;;;;4121253;28;20345;-62
2022/12/28 10:26:17;;;;;;;13.53;6.57;;;2.90;99.90;;;;;;4128154;28;20675;-61
2022/12/28 10:28:21;;;;;;;12.03;6.93;;;2.90;99.90;;;;;;4128060;28;20339;-61
2022/12/28 10:30:25;;;;;;;14.47;6.93;;;2.90;99.90;;;;;;4112312;28;20285;-62
2022/12/28 10:32:53;;;;;;;12.70;6.57;;;3.00;99.90;;;;;;4111881;28;20330;-62
2022/12/28 10:35:02;;;;;;;12.70;6.90;;;2.90;99.90;;;;;;4121391;28;20272;-61
2022/12/28 10:37:13;;;;;;;11.97;7.00;;;3.00;99.90;;;;;;4112140;28;20300;-62
2022/12/28 10:39:26;;;;;;;11.10;5.63;;;3.10;99.90;;;;;;4111458;28;20264;-67
2022/12/28 10:41:39;;;;;;;11.47;5.87;;;3.20;99.90;;;;;;4112060;28;20665;-62
2022/12/28 10:43:50;;;;;;;11.23;5.50;;;3.20;99.90;;;;;;4112174;28;20280;-61
2022/12/28 10:45:51;;;;;;;8.10;4.73;;;3.30;99.90;;;;;;4094567;29;20357;-61
2022/12/28 10:47:54;;;;;;;9.23;5.07;;;3.30;99.90;;;;;;4111840;28;20603;-61
2022/12/28 10:49:56;;;;;;;11.90;5.77;;;3.40;99.90;;;;;;4114898;28;20291;-63
2022/12/28 10:52:18;;;;;;;11.70;5.73;;;3.40;99.90;;;;;;4127361;28;20702;-61
2022/12/28 10:54:24;;;;;;;11.27;5.33;;;3.50;99.90;;;;;;4127734;28;20280;-61
2022/12/28 10:56:26;;;;;;;11.40;4.70;;;3.70;99.90;;;;;;4127271;28;20272;-62
2022/12/28 10:58:27;;;;;;;8.93;5.10;;;3.60;99.90;;;;;;4128271;28;20330;-60
2022/12/28 11:00:28;;;;;;;10.00;4.80;;;3.70;99.90;;;;;;4127358;28;20264;-61
2022/12/28 11:02:34;;;;;;;9.30;5.20;;;3.70;99.90;;;;;;4127988;28;20350;-61
2022/12/28 11:04:35;;;;;;;7.83;5.30;;;3.70;99.90;;;;;;4127512;28;20276;-61
2022/12/28 11:06:57;;;;;;;11.27;5.40;;;3.70;99.90;;;;;;4128361;28;20708;-61
2022/12/28 11:09:23;;;;;;;10.60;5.00;;;3.80;99.90;;;;;;4129087;28;20288;-60